ěÝzenÝ letovÚho provozu ╚eskÚ republiky
Letiste: LKPR Aktualizace: 30.05.2020 03:01:18  UTC
 METAR LKPR 30.05. 03:00 ...
METAR LKPR 300300Z 33005KT CAVOK 09/05 Q1022 NOSIG RMK REG QNH 1018=
 TAF LKPR 29.05. 23:00 ...
TAF LKPR 292300Z 3000/3106 33007KT CAVOK      TEMPO 3000/3004 VRB02KT      TEMPO 3007/3018 36011G22KT=